<?xml version="1.0" encoding="UTF-8" standalone="no" ?>
<gpx xmlns="http://www.topografix.com/GPX/1/1" xmlns:xsi="http://www.w3.org/2001/XMLSchema-instance" xsi:schemaLocation="http://www.topografix.com/GPX/1/1 http://www.topografix.com/GPX/1/1/gpx.xsd" version="1.1" creator="VisuGPX - https://www.visugpx.com">
  <metadata>
    <name>FONTAINEBLEAU - La Plaine verte 2</name>
    <desc><![CDATA[la plaine verte avec J-C GRENE]]></desc>
  </metadata>
  <trk>
    <name><![CDATA[--Bourron-Marlotte-- OR-5532826:La plaine verte]]></name>
    <trkseg>
      <trkpt lat="48.35395" lon="2.72789">
        <ele>95</ele>
        <time>2015-12-13T17:30:51Z</time>
      </trkpt>
      <trkpt lat="48.35418" lon="2.72757">
        <ele>96</ele>
        <time>2015-12-13T17:32:51Z</time>
      </trkpt>
      <trkpt lat="48.35429" lon="2.72743">
        <ele>97</ele>
        <time>2015-12-13T17:34:51Z</time>
      </trkpt>
      <trkpt lat="48.35476" lon="2.72692">
        <ele>100</ele>
        <time>2015-12-13T17:36:51Z</time>
      </trkpt>
      <trkpt lat="48.35496" lon="2.72666">
        <ele>101</ele>
        <time>2015-12-13T17:38:51Z</time>
      </trkpt>
      <trkpt lat="48.35503" lon="2.72659">
        <ele>102</ele>
        <time>2015-12-13T17:40:51Z</time>
      </trkpt>
      <trkpt lat="48.35515" lon="2.72645">
        <ele>104</ele>
        <time>2015-12-13T17:42:51Z</time>
      </trkpt>
      <trkpt lat="48.35533" lon="2.72633">
        <ele>106</ele>
        <time>2015-12-13T17:44:51Z</time>
      </trkpt>
      <trkpt lat="48.35539" lon="2.72632">
        <ele>107</ele>
        <time>2015-12-13T17:46:51Z</time>
      </trkpt>
      <trkpt lat="48.35543" lon="2.72621">
        <ele>107</ele>
        <time>2015-12-13T17:48:51Z</time>
      </trkpt>
      <trkpt lat="48.35543" lon="2.72613">
        <ele>107</ele>
        <time>2015-12-13T17:50:51Z</time>
      </trkpt>
      <trkpt lat="48.35549" lon="2.72602">
        <ele>108</ele>
        <time>2015-12-13T17:52:51Z</time>
      </trkpt>
      <trkpt lat="48.35556" lon="2.72597">
        <ele>109</ele>
        <time>2015-12-13T17:54:51Z</time>
      </trkpt>
      <trkpt lat="48.35574" lon="2.72587">
        <ele>110</ele>
        <time>2015-12-13T17:56:51Z</time>
      </trkpt>
      <trkpt lat="48.35597" lon="2.72581">
        <ele>110</ele>
        <time>2015-12-13T17:58:51Z</time>
      </trkpt>
      <trkpt lat="48.35623" lon="2.72579">
        <ele>109</ele>
        <time>2015-12-13T18:00:51Z</time>
      </trkpt>
      <trkpt lat="48.35644" lon="2.7258">
        <ele>108</ele>
        <time>2015-12-13T18:02:51Z</time>
      </trkpt>
      <trkpt lat="48.35666" lon="2.72579">
        <ele>107</ele>
        <time>2015-12-13T18:04:51Z</time>
      </trkpt>
      <trkpt lat="48.35686" lon="2.72587">
        <ele>106</ele>
        <time>2015-12-13T18:06:51Z</time>
      </trkpt>
      <trkpt lat="48.35706" lon="2.72595">
        <ele>105</ele>
        <time>2015-12-13T18:08:51Z</time>
      </trkpt>
      <trkpt lat="48.35721" lon="2.72601">
        <ele>104</ele>
        <time>2015-12-13T18:10:51Z</time>
      </trkpt>
      <trkpt lat="48.35734" lon="2.72607">
        <ele>103</ele>
        <time>2015-12-13T18:12:51Z</time>
      </trkpt>
      <trkpt lat="48.35749" lon="2.72611">
        <ele>102</ele>
        <time>2015-12-13T18:14:51Z</time>
      </trkpt>
      <trkpt lat="48.35764" lon="2.72615">
        <ele>101</ele>
        <time>2015-12-13T18:16:51Z</time>
      </trkpt>
      <trkpt lat="48.3578" lon="2.7262">
        <ele>99</ele>
        <time>2015-12-13T18:18:51Z</time>
      </trkpt>
      <trkpt lat="48.35794" lon="2.72624">
        <ele>98</ele>
        <time>2015-12-13T18:20:51Z</time>
      </trkpt>
      <trkpt lat="48.35804" lon="2.72627">
        <ele>97</ele>
        <time>2015-12-13T18:22:51Z</time>
      </trkpt>
      <trkpt lat="48.35822" lon="2.72629">
        <ele>96</ele>
        <time>2015-12-13T18:24:51Z</time>
      </trkpt>
      <trkpt lat="48.35827" lon="2.72609">
        <ele>96</ele>
        <time>2015-12-13T18:26:51Z</time>
      </trkpt>
      <trkpt lat="48.35832" lon="2.72591">
        <ele>95</ele>
        <time>2015-12-13T18:28:51Z</time>
      </trkpt>
      <trkpt lat="48.35842" lon="2.72562">
        <ele>95</ele>
        <time>2015-12-13T18:30:51Z</time>
      </trkpt>
      <trkpt lat="48.35845" lon="2.72548">
        <ele>94</ele>
        <time>2015-12-13T18:32:51Z</time>
      </trkpt>
      <trkpt lat="48.35849" lon="2.72528">
        <ele>94</ele>
        <time>2015-12-13T18:34:51Z</time>
      </trkpt>
      <trkpt lat="48.35852" lon="2.72512">
        <ele>94</ele>
        <time>2015-12-13T18:36:51Z</time>
      </trkpt>
      <trkpt lat="48.35878" lon="2.72426">
        <ele>95</ele>
        <time>2015-12-13T18:38:51Z</time>
      </trkpt>
      <trkpt lat="48.35891" lon="2.72381">
        <ele>96</ele>
        <time>2015-12-13T18:40:51Z</time>
      </trkpt>
      <trkpt lat="48.35902" lon="2.72345">
        <ele>96</ele>
        <time>2015-12-13T18:42:51Z</time>
      </trkpt>
      <trkpt lat="48.35908" lon="2.72317">
        <ele>96</ele>
        <time>2015-12-13T18:44:51Z</time>
      </trkpt>
      <trkpt lat="48.35924" lon="2.7227">
        <ele>96</ele>
        <time>2015-12-13T18:46:51Z</time>
      </trkpt>
      <trkpt lat="48.35934" lon="2.72236">
        <ele>96</ele>
        <time>2015-12-13T18:48:51Z</time>
      </trkpt>
      <trkpt lat="48.35946" lon="2.72177">
        <ele>97</ele>
        <time>2015-12-13T18:50:51Z</time>
      </trkpt>
      <trkpt lat="48.35958" lon="2.72123">
        <ele>97</ele>
        <time>2015-12-13T18:52:51Z</time>
      </trkpt>
      <trkpt lat="48.35964" lon="2.72091">
        <ele>96</ele>
        <time>2015-12-13T18:54:51Z</time>
      </trkpt>
      <trkpt lat="48.3597" lon="2.72057">
        <ele>98</ele>
        <time>2015-12-13T18:56:51Z</time>
      </trkpt>
      <trkpt lat="48.35976" lon="2.72032">
        <ele>98</ele>
        <time>2015-12-13T18:58:51Z</time>
      </trkpt>
      <trkpt lat="48.35986" lon="2.71981">
        <ele>100</ele>
        <time>2015-12-13T19:00:51Z</time>
      </trkpt>
      <trkpt lat="48.3601" lon="2.71868">
        <ele>102</ele>
        <time>2015-12-13T19:02:51Z</time>
      </trkpt>
      <trkpt lat="48.36028" lon="2.71771">
        <ele>101</ele>
        <time>2015-12-13T19:04:51Z</time>
      </trkpt>
      <trkpt lat="48.36066" lon="2.71583">
        <ele>98</ele>
        <time>2015-12-13T19:06:51Z</time>
      </trkpt>
      <trkpt lat="48.36087" lon="2.71479">
        <ele>102</ele>
        <time>2015-12-13T19:08:51Z</time>
      </trkpt>
      <trkpt lat="48.36073" lon="2.71468">
        <ele>102</ele>
        <time>2015-12-13T19:10:51Z</time>
      </trkpt>
      <trkpt lat="48.36059" lon="2.71461">
        <ele>102</ele>
        <time>2015-12-13T19:12:51Z</time>
      </trkpt>
      <trkpt lat="48.36042" lon="2.71451">
        <ele>102</ele>
        <time>2015-12-13T19:14:51Z</time>
      </trkpt>
      <trkpt lat="48.36026" lon="2.71445">
        <ele>102</ele>
        <time>2015-12-13T19:16:51Z</time>
      </trkpt>
      <trkpt lat="48.36009" lon="2.71437">
        <ele>102</ele>
        <time>2015-12-13T19:18:51Z</time>
      </trkpt>
      <trkpt lat="48.35997" lon="2.71437">
        <ele>102</ele>
        <time>2015-12-13T19:20:51Z</time>
      </trkpt>
      <trkpt lat="48.35982" lon="2.71441">
        <ele>104</ele>
        <time>2015-12-13T19:22:51Z</time>
      </trkpt>
      <trkpt lat="48.35971" lon="2.71447">
        <ele>106</ele>
        <time>2015-12-13T19:24:51Z</time>
      </trkpt>
      <trkpt lat="48.35963" lon="2.71452">
        <ele>107</ele>
        <time>2015-12-13T19:26:51Z</time>
      </trkpt>
      <trkpt lat="48.35952" lon="2.71462">
        <ele>109</ele>
        <time>2015-12-13T19:28:51Z</time>
      </trkpt>
      <trkpt lat="48.35941" lon="2.71469">
        <ele>111</ele>
        <time>2015-12-13T19:30:51Z</time>
      </trkpt>
      <trkpt lat="48.35931" lon="2.71471">
        <ele>113</ele>
        <time>2015-12-13T19:32:51Z</time>
      </trkpt>
      <trkpt lat="48.35919" lon="2.71476">
        <ele>115</ele>
        <time>2015-12-13T19:34:51Z</time>
      </trkpt>
      <trkpt lat="48.35907" lon="2.71483">
        <ele>116</ele>
        <time>2015-12-13T19:36:51Z</time>
      </trkpt>
      <trkpt lat="48.35898" lon="2.71494">
        <ele>116</ele>
        <time>2015-12-13T19:38:51Z</time>
      </trkpt>
      <trkpt lat="48.35886" lon="2.71503">
        <ele>117</ele>
        <time>2015-12-13T19:40:51Z</time>
      </trkpt>
      <trkpt lat="48.35888" lon="2.7149">
        <ele>116</ele>
        <time>2015-12-13T19:42:51Z</time>
      </trkpt>
      <trkpt lat="48.35895" lon="2.7147">
        <ele>116</ele>
        <time>2015-12-13T19:44:51Z</time>
      </trkpt>
      <trkpt lat="48.35902" lon="2.71452">
        <ele>115</ele>
        <time>2015-12-13T19:46:51Z</time>
      </trkpt>
      <trkpt lat="48.35907" lon="2.71436">
        <ele>115</ele>
        <time>2015-12-13T19:48:51Z</time>
      </trkpt>
      <trkpt lat="48.35903" lon="2.71421">
        <ele>115</ele>
        <time>2015-12-13T19:50:51Z</time>
      </trkpt>
      <trkpt lat="48.35898" lon="2.71403">
        <ele>115</ele>
        <time>2015-12-13T19:52:51Z</time>
      </trkpt>
      <trkpt lat="48.35899" lon="2.71388">
        <ele>116</ele>
        <time>2015-12-13T19:54:51Z</time>
      </trkpt>
      <trkpt lat="48.35899" lon="2.71373">
        <ele>116</ele>
        <time>2015-12-13T19:56:51Z</time>
      </trkpt>
      <trkpt lat="48.35897" lon="2.71357">
        <ele>117</ele>
        <time>2015-12-13T19:58:51Z</time>
      </trkpt>
      <trkpt lat="48.35895" lon="2.71339">
        <ele>118</ele>
        <time>2015-12-13T20:00:51Z</time>
      </trkpt>
      <trkpt lat="48.35895" lon="2.71329">
        <ele>119</ele>
        <time>2015-12-13T20:02:51Z</time>
      </trkpt>
      <trkpt lat="48.35902" lon="2.71316">
        <ele>120</ele>
        <time>2015-12-13T20:04:51Z</time>
      </trkpt>
      <trkpt lat="48.35905" lon="2.7131">
        <ele>120</ele>
        <time>2015-12-13T20:06:51Z</time>
      </trkpt>
      <trkpt lat="48.35908" lon="2.71302">
        <ele>121</ele>
        <time>2015-12-13T20:08:51Z</time>
      </trkpt>
      <trkpt lat="48.35916" lon="2.713">
        <ele>120</ele>
        <time>2015-12-13T20:10:51Z</time>
      </trkpt>
      <trkpt lat="48.3592" lon="2.71293">
        <ele>120</ele>
        <time>2015-12-13T20:12:51Z</time>
      </trkpt>
      <trkpt lat="48.35922" lon="2.71284">
        <ele>121</ele>
        <time>2015-12-13T20:14:51Z</time>
      </trkpt>
      <trkpt lat="48.3593" lon="2.71279">
        <ele>120</ele>
        <time>2015-12-13T20:16:51Z</time>
      </trkpt>
      <trkpt lat="48.35938" lon="2.71276">
        <ele>120</ele>
        <time>2015-12-13T20:18:51Z</time>
      </trkpt>
      <trkpt lat="48.35946" lon="2.71277">
        <ele>118</ele>
        <time>2015-12-13T20:20:51Z</time>
      </trkpt>
      <trkpt lat="48.35956" lon="2.71276">
        <ele>117</ele>
        <time>2015-12-13T20:22:51Z</time>
      </trkpt>
      <trkpt lat="48.3596" lon="2.7127">
        <ele>117</ele>
        <time>2015-12-13T20:24:51Z</time>
      </trkpt>
      <trkpt lat="48.35962" lon="2.71259">
        <ele>118</ele>
        <time>2015-12-13T20:26:51Z</time>
      </trkpt>
      <trkpt lat="48.35964" lon="2.71245">
        <ele>118</ele>
        <time>2015-12-13T20:28:51Z</time>
      </trkpt>
      <trkpt lat="48.35964" lon="2.71229">
        <ele>119</ele>
        <time>2015-12-13T20:30:51Z</time>
      </trkpt>
      <trkpt lat="48.35961" lon="2.71219">
        <ele>120</ele>
        <time>2015-12-13T20:32:51Z</time>
      </trkpt>
      <trkpt lat="48.35956" lon="2.71209">
        <ele>121</ele>
        <time>2015-12-13T20:34:51Z</time>
      </trkpt>
      <trkpt lat="48.35948" lon="2.71197">
        <ele>122</ele>
        <time>2015-12-13T20:36:51Z</time>
      </trkpt>
      <trkpt lat="48.3594" lon="2.71188">
        <ele>124</ele>
        <time>2015-12-13T20:38:51Z</time>
      </trkpt>
      <trkpt lat="48.35933" lon="2.71181">
        <ele>125</ele>
        <time>2015-12-13T20:40:51Z</time>
      </trkpt>
      <trkpt lat="48.3593" lon="2.71164">
        <ele>126</ele>
        <time>2015-12-13T20:42:51Z</time>
      </trkpt>
      <trkpt lat="48.35928" lon="2.71149">
        <ele>126</ele>
        <time>2015-12-13T20:44:51Z</time>
      </trkpt>
      <trkpt lat="48.3592" lon="2.71138">
        <ele>127</ele>
        <time>2015-12-13T20:46:51Z</time>
      </trkpt>
      <trkpt lat="48.35911" lon="2.7113">
        <ele>128</ele>
        <time>2015-12-13T20:48:51Z</time>
      </trkpt>
      <trkpt lat="48.35901" lon="2.71124">
        <ele>129</ele>
        <time>2015-12-13T20:50:51Z</time>
      </trkpt>
      <trkpt lat="48.35888" lon="2.71118">
        <ele>129</ele>
        <time>2015-12-13T20:52:51Z</time>
      </trkpt>
      <trkpt lat="48.35878" lon="2.71104">
        <ele>129</ele>
        <time>2015-12-13T20:54:51Z</time>
      </trkpt>
      <trkpt lat="48.35873" lon="2.71087">
        <ele>130</ele>
        <time>2015-12-13T20:56:51Z</time>
      </trkpt>
      <trkpt lat="48.35868" lon="2.71077">
        <ele>130</ele>
        <time>2015-12-13T20:58:51Z</time>
      </trkpt>
      <trkpt lat="48.35861" lon="2.71062">
        <ele>130</ele>
        <time>2015-12-13T21:00:51Z</time>
      </trkpt>
      <trkpt lat="48.35853" lon="2.71065">
        <ele>130</ele>
        <time>2015-12-13T21:02:51Z</time>
      </trkpt>
      <trkpt lat="48.35853" lon="2.71078">
        <ele>130</ele>
        <time>2015-12-13T21:04:51Z</time>
      </trkpt>
      <trkpt lat="48.3585" lon="2.7109">
        <ele>130</ele>
        <time>2015-12-13T21:06:51Z</time>
      </trkpt>
      <trkpt lat="48.3584" lon="2.71095">
        <ele>131</ele>
        <time>2015-12-13T21:08:51Z</time>
      </trkpt>
      <trkpt lat="48.35831" lon="2.71093">
        <ele>131</ele>
        <time>2015-12-13T21:10:51Z</time>
      </trkpt>
      <trkpt lat="48.35818" lon="2.71088">
        <ele>132</ele>
        <time>2015-12-13T21:12:51Z</time>
      </trkpt>
      <trkpt lat="48.35806" lon="2.71083">
        <ele>133</ele>
        <time>2015-12-13T21:14:51Z</time>
      </trkpt>
      <trkpt lat="48.35796" lon="2.71078">
        <ele>134</ele>
        <time>2015-12-13T21:16:51Z</time>
      </trkpt>
      <trkpt lat="48.35788" lon="2.71079">
        <ele>134</ele>
        <time>2015-12-13T21:18:51Z</time>
      </trkpt>
      <trkpt lat="48.35781" lon="2.71084">
        <ele>135</ele>
        <time>2015-12-13T21:20:51Z</time>
      </trkpt>
      <trkpt lat="48.3577" lon="2.71089">
        <ele>135</ele>
        <time>2015-12-13T21:22:51Z</time>
      </trkpt>
      <trkpt lat="48.35749" lon="2.711">
        <ele>136</ele>
        <time>2015-12-13T21:24:51Z</time>
      </trkpt>
      <trkpt lat="48.35736" lon="2.71109">
        <ele>136</ele>
        <time>2015-12-13T21:26:51Z</time>
      </trkpt>
      <trkpt lat="48.3572" lon="2.71121">
        <ele>136</ele>
        <time>2015-12-13T21:28:51Z</time>
      </trkpt>
      <trkpt lat="48.35709" lon="2.71129">
        <ele>135</ele>
        <time>2015-12-13T21:30:51Z</time>
      </trkpt>
      <trkpt lat="48.357" lon="2.71146">
        <ele>134</ele>
        <time>2015-12-13T21:32:51Z</time>
      </trkpt>
      <trkpt lat="48.35694" lon="2.71163">
        <ele>132</ele>
        <time>2015-12-13T21:34:51Z</time>
      </trkpt>
      <trkpt lat="48.35687" lon="2.71189">
        <ele>131</ele>
        <time>2015-12-13T21:36:51Z</time>
      </trkpt>
      <trkpt lat="48.35684" lon="2.71205">
        <ele>130</ele>
        <time>2015-12-13T21:38:51Z</time>
      </trkpt>
      <trkpt lat="48.35681" lon="2.7122">
        <ele>130</ele>
        <time>2015-12-13T21:40:51Z</time>
      </trkpt>
      <trkpt lat="48.35679" lon="2.71241">
        <ele>129</ele>
        <time>2015-12-13T21:42:51Z</time>
      </trkpt>
      <trkpt lat="48.35678" lon="2.71255">
        <ele>128</ele>
        <time>2015-12-13T21:44:51Z</time>
      </trkpt>
      <trkpt lat="48.35675" lon="2.71268">
        <ele>128</ele>
        <time>2015-12-13T21:46:51Z</time>
      </trkpt>
      <trkpt lat="48.35668" lon="2.71281">
        <ele>128</ele>
        <time>2015-12-13T21:48:51Z</time>
      </trkpt>
      <trkpt lat="48.35656" lon="2.71292">
        <ele>127</ele>
        <time>2015-12-13T21:50:51Z</time>
      </trkpt>
      <trkpt lat="48.35646" lon="2.71306">
        <ele>126</ele>
        <time>2015-12-13T21:52:51Z</time>
      </trkpt>
      <trkpt lat="48.35635" lon="2.71319">
        <ele>125</ele>
        <time>2015-12-13T21:54:51Z</time>
      </trkpt>
      <trkpt lat="48.35612" lon="2.71343">
        <ele>123</ele>
        <time>2015-12-13T21:56:51Z</time>
      </trkpt>
      <trkpt lat="48.35597" lon="2.71363">
        <ele>121</ele>
        <time>2015-12-13T21:58:51Z</time>
      </trkpt>
      <trkpt lat="48.35588" lon="2.71374">
        <ele>120</ele>
        <time>2015-12-13T22:00:51Z</time>
      </trkpt>
      <trkpt lat="48.35577" lon="2.71396">
        <ele>120</ele>
        <time>2015-12-13T22:02:51Z</time>
      </trkpt>
      <trkpt lat="48.35572" lon="2.71409">
        <ele>120</ele>
        <time>2015-12-13T22:04:51Z</time>
      </trkpt>
      <trkpt lat="48.35569" lon="2.71422">
        <ele>120</ele>
        <time>2015-12-13T22:06:51Z</time>
      </trkpt>
      <trkpt lat="48.35563" lon="2.71433">
        <ele>119</ele>
        <time>2015-12-13T22:08:51Z</time>
      </trkpt>
      <trkpt lat="48.35554" lon="2.7145">
        <ele>119</ele>
        <time>2015-12-13T22:10:51Z</time>
      </trkpt>
      <trkpt lat="48.35548" lon="2.7146">
        <ele>118</ele>
        <time>2015-12-13T22:12:51Z</time>
      </trkpt>
      <trkpt lat="48.35542" lon="2.71467">
        <ele>118</ele>
        <time>2015-12-13T22:14:51Z</time>
      </trkpt>
      <trkpt lat="48.35535" lon="2.71472">
        <ele>118</ele>
        <time>2015-12-13T22:16:51Z</time>
      </trkpt>
      <trkpt lat="48.35523" lon="2.71471">
        <ele>117</ele>
        <time>2015-12-13T22:18:51Z</time>
      </trkpt>
      <trkpt lat="48.35507" lon="2.71466">
        <ele>116</ele>
        <time>2015-12-13T22:20:51Z</time>
      </trkpt>
      <trkpt lat="48.35487" lon="2.71461">
        <ele>115</ele>
        <time>2015-12-13T22:22:51Z</time>
      </trkpt>
      <trkpt lat="48.35469" lon="2.71461">
        <ele>114</ele>
        <time>2015-12-13T22:24:51Z</time>
      </trkpt>
      <trkpt lat="48.35452" lon="2.7146">
        <ele>113</ele>
        <time>2015-12-13T22:26:51Z</time>
      </trkpt>
      <trkpt lat="48.35428" lon="2.71465">
        <ele>112</ele>
        <time>2015-12-13T22:28:51Z</time>
      </trkpt>
      <trkpt lat="48.35412" lon="2.71467">
        <ele>111</ele>
        <time>2015-12-13T22:30:51Z</time>
      </trkpt>
      <trkpt lat="48.35397" lon="2.71472">
        <ele>110</ele>
        <time>2015-12-13T22:32:51Z</time>
      </trkpt>
      <trkpt lat="48.35382" lon="2.71476">
        <ele>109</ele>
        <time>2015-12-13T22:34:51Z</time>
      </trkpt>
      <trkpt lat="48.35385" lon="2.71484">
        <ele>109</ele>
        <time>2015-12-13T22:36:51Z</time>
      </trkpt>
      <trkpt lat="48.35393" lon="2.71491">
        <ele>109</ele>
        <time>2015-12-13T22:38:51Z</time>
      </trkpt>
      <trkpt lat="48.3541" lon="2.71521">
        <ele>110</ele>
        <time>2015-12-13T22:40:51Z</time>
      </trkpt>
      <trkpt lat="48.35414" lon="2.71551">
        <ele>109</ele>
        <time>2015-12-13T22:42:51Z</time>
      </trkpt>
      <trkpt lat="48.35423" lon="2.71583">
        <ele>108</ele>
        <time>2015-12-13T22:44:51Z</time>
      </trkpt>
      <trkpt lat="48.35427" lon="2.71596">
        <ele>108</ele>
        <time>2015-12-13T22:46:51Z</time>
      </trkpt>
      <trkpt lat="48.35433" lon="2.71616">
        <ele>107</ele>
        <time>2015-12-13T22:48:51Z</time>
      </trkpt>
      <trkpt lat="48.35444" lon="2.71632">
        <ele>107</ele>
        <time>2015-12-13T22:50:51Z</time>
      </trkpt>
      <trkpt lat="48.35447" lon="2.71647">
        <ele>107</ele>
        <time>2015-12-13T22:52:51Z</time>
      </trkpt>
      <trkpt lat="48.35451" lon="2.71672">
        <ele>106</ele>
        <time>2015-12-13T22:54:51Z</time>
      </trkpt>
      <trkpt lat="48.35459" lon="2.71711">
        <ele>102</ele>
        <time>2015-12-13T22:56:51Z</time>
      </trkpt>
      <trkpt lat="48.35458" lon="2.71732">
        <ele>100</ele>
        <time>2015-12-13T22:58:51Z</time>
      </trkpt>
      <trkpt lat="48.35456" lon="2.71743">
        <ele>99</ele>
        <time>2015-12-13T23:00:51Z</time>
      </trkpt>
      <trkpt lat="48.35453" lon="2.71757">
        <ele>97</ele>
        <time>2015-12-13T23:02:51Z</time>
      </trkpt>
      <trkpt lat="48.35449" lon="2.71767">
        <ele>97</ele>
        <time>2015-12-13T23:04:51Z</time>
      </trkpt>
      <trkpt lat="48.35447" lon="2.71783">
        <ele>96</ele>
        <time>2015-12-13T23:06:51Z</time>
      </trkpt>
      <trkpt lat="48.35449" lon="2.71804">
        <ele>96</ele>
        <time>2015-12-13T23:08:51Z</time>
      </trkpt>
      <trkpt lat="48.3544" lon="2.71815">
        <ele>96</ele>
        <time>2015-12-13T23:10:51Z</time>
      </trkpt>
      <trkpt lat="48.35432" lon="2.7182">
        <ele>95</ele>
        <time>2015-12-13T23:12:51Z</time>
      </trkpt>
      <trkpt lat="48.3542" lon="2.71838">
        <ele>95</ele>
        <time>2015-12-13T23:14:51Z</time>
      </trkpt>
      <trkpt lat="48.35413" lon="2.71848">
        <ele>95</ele>
        <time>2015-12-13T23:16:51Z</time>
      </trkpt>
      <trkpt lat="48.35409" lon="2.71859">
        <ele>95</ele>
        <time>2015-12-13T23:18:51Z</time>
      </trkpt>
      <trkpt lat="48.354" lon="2.71865">
        <ele>95</ele>
        <time>2015-12-13T23:20:51Z</time>
      </trkpt>
      <trkpt lat="48.35389" lon="2.71871">
        <ele>94</ele>
        <time>2015-12-13T23:22:51Z</time>
      </trkpt>
      <trkpt lat="48.35373" lon="2.71889">
        <ele>94</ele>
        <time>2015-12-13T23:24:51Z</time>
      </trkpt>
      <trkpt lat="48.35359" lon="2.71904">
        <ele>95</ele>
        <time>2015-12-13T23:26:51Z</time>
      </trkpt>
      <trkpt lat="48.35343" lon="2.71925">
        <ele>95</ele>
        <time>2015-12-13T23:28:51Z</time>
      </trkpt>
      <trkpt lat="48.3533" lon="2.71942">
        <ele>96</ele>
        <time>2015-12-13T23:30:51Z</time>
      </trkpt>
      <trkpt lat="48.35321" lon="2.71954">
        <ele>96</ele>
        <time>2015-12-13T23:32:51Z</time>
      </trkpt>
      <trkpt lat="48.35313" lon="2.71965">
        <ele>96</ele>
        <time>2015-12-13T23:34:51Z</time>
      </trkpt>
      <trkpt lat="48.35303" lon="2.71977">
        <ele>95</ele>
        <time>2015-12-13T23:36:51Z</time>
      </trkpt>
      <trkpt lat="48.35294" lon="2.72006">
        <ele>96</ele>
        <time>2015-12-13T23:38:51Z</time>
      </trkpt>
      <trkpt lat="48.3529" lon="2.72026">
        <ele>95</ele>
        <time>2015-12-13T23:40:51Z</time>
      </trkpt>
      <trkpt lat="48.35287" lon="2.72037">
        <ele>95</ele>
        <time>2015-12-13T23:42:51Z</time>
      </trkpt>
      <trkpt lat="48.35287" lon="2.72055">
        <ele>95</ele>
        <time>2015-12-13T23:44:51Z</time>
      </trkpt>
      <trkpt lat="48.35287" lon="2.72066">
        <ele>95</ele>
        <time>2015-12-13T23:46:51Z</time>
      </trkpt>
      <trkpt lat="48.35286" lon="2.72079">
        <ele>95</ele>
        <time>2015-12-13T23:48:51Z</time>
      </trkpt>
      <trkpt lat="48.35283" lon="2.72092">
        <ele>96</ele>
        <time>2015-12-13T23:50:51Z</time>
      </trkpt>
      <trkpt lat="48.35277" lon="2.72111">
        <ele>96</ele>
        <time>2015-12-13T23:52:51Z</time>
      </trkpt>
      <trkpt lat="48.35271" lon="2.72137">
        <ele>97</ele>
        <time>2015-12-13T23:54:51Z</time>
      </trkpt>
      <trkpt lat="48.35267" lon="2.72147">
        <ele>97</ele>
        <time>2015-12-13T23:56:51Z</time>
      </trkpt>
      <trkpt lat="48.35261" lon="2.72153">
        <ele>98</ele>
        <time>2015-12-13T23:58:51Z</time>
      </trkpt>
      <trkpt lat="48.35255" lon="2.72167">
        <ele>98</ele>
        <time>2015-12-14T00:00:51Z</time>
      </trkpt>
      <trkpt lat="48.35249" lon="2.72184">
        <ele>98</ele>
        <time>2015-12-14T00:02:51Z</time>
      </trkpt>
      <trkpt lat="48.35246" lon="2.72194">
        <ele>98</ele>
        <time>2015-12-14T00:04:51Z</time>
      </trkpt>
      <trkpt lat="48.35245" lon="2.72205">
        <ele>98</ele>
        <time>2015-12-14T00:06:51Z</time>
      </trkpt>
      <trkpt lat="48.3524" lon="2.7222">
        <ele>98</ele>
        <time>2015-12-14T00:08:51Z</time>
      </trkpt>
      <trkpt lat="48.35236" lon="2.72233">
        <ele>98</ele>
        <time>2015-12-14T00:10:51Z</time>
      </trkpt>
      <trkpt lat="48.35233" lon="2.72249">
        <ele>98</ele>
        <time>2015-12-14T00:12:51Z</time>
      </trkpt>
      <trkpt lat="48.35232" lon="2.72263">
        <ele>98</ele>
        <time>2015-12-14T00:14:51Z</time>
      </trkpt>
      <trkpt lat="48.35234" lon="2.72306">
        <ele>98</ele>
        <time>2015-12-14T00:16:51Z</time>
      </trkpt>
      <trkpt lat="48.35243" lon="2.72331">
        <ele>98</ele>
        <time>2015-12-14T00:18:51Z</time>
      </trkpt>
      <trkpt lat="48.35268" lon="2.72387">
        <ele>99</ele>
        <time>2015-12-14T00:20:51Z</time>
      </trkpt>
      <trkpt lat="48.35303" lon="2.72481">
        <ele>98</ele>
        <time>2015-12-14T00:22:51Z</time>
      </trkpt>
      <trkpt lat="48.35321" lon="2.72531">
        <ele>96</ele>
        <time>2015-12-14T00:24:51Z</time>
      </trkpt>
      <trkpt lat="48.35342" lon="2.72575">
        <ele>95</ele>
        <time>2015-12-14T00:26:51Z</time>
      </trkpt>
      <trkpt lat="48.35356" lon="2.72608">
        <ele>95</ele>
        <time>2015-12-14T00:28:51Z</time>
      </trkpt>
      <trkpt lat="48.35359" lon="2.72624">
        <ele>95</ele>
        <time>2015-12-14T00:30:51Z</time>
      </trkpt>
      <trkpt lat="48.35371" lon="2.72648">
        <ele>95</ele>
        <time>2015-12-14T00:32:51Z</time>
      </trkpt>
      <trkpt lat="48.35379" lon="2.72662">
        <ele>95</ele>
        <time>2015-12-14T00:34:51Z</time>
      </trkpt>
      <trkpt lat="48.35388" lon="2.72674">
        <ele>96</ele>
        <time>2015-12-14T00:36:51Z</time>
      </trkpt>
      <trkpt lat="48.35394" lon="2.72705">
        <ele>96</ele>
        <time>2015-12-14T00:38:51Z</time>
      </trkpt>
      <trkpt lat="48.35405" lon="2.72724">
        <ele>96</ele>
        <time>2015-12-14T00:40:51Z</time>
      </trkpt>
      <trkpt lat="48.35418" lon="2.72752">
        <ele>96</ele>
        <time>2015-12-14T00:42:51Z</time>
      </trkpt>
      <trkpt lat="48.35389" lon="2.72791">
        <ele>95</ele>
        <time>2015-12-14T00:44:51Z</time>
      </trkpt>
    </trkseg>
  </trk>
</gpx>